Time;durP1;ratioP1;P1;durP2;ratioP2;P2;SDS_P1;SDS_P2;PMS_P1;PMS_P2;Temp;Humidity;BMP_temperature;BMP_pressure;BME280_temperature;BME280_humidity;BME280_pressure;Samples;Min_cycle;Max_cycle;Signal;HPM_P1;HPM_P2
2022/06/02 00:01:56;;;;;;;5.93;3.65;;;;;;;14.64;100.00;96402.06;5052454;28;20077;-46
2022/06/02 00:04:30;;;;;;;5.43;4.32;;;;;;;14.53;100.00;96407.75;5064982;28;20060;-53
2022/06/02 00:07:04;;;;;;;5.53;3.65;;;;;;;14.47;100.00;96407.41;5067377;28;20519;-48
2022/06/02 00:09:44;;;;;;;5.13;3.90;;;;;;;14.31;100.00;96406.59;5067368;28;20080;-46
2022/06/02 00:12:16;;;;;;;6.95;3.90;;;;;;;14.33;100.00;96418.72;5060824;28;20534;-49
2022/06/02 00:14:50;;;;;;;4.72;4.20;;;;;;;14.30;100.00;96418.22;5066068;28;20065;-48
2022/06/02 00:17:26;;;;;;;8.00;4.07;;;;;;;14.24;100.00;96420.53;5060527;28;20498;-50
2022/06/02 00:19:58;;;;;;;4.28;3.88;;;;;;;14.17;100.00;96413.41;5065128;28;20072;-48
2022/06/02 00:22:33;;;;;;;5.57;3.97;;;;;;;14.17;100.00;96416.91;5061676;28;20056;-50
2022/06/02 00:25:08;;;;;;;5.20;4.50;;;;;;;14.21;100.00;96426.19;5060728;28;20060;-49
2022/06/02 00:27:42;;;;;;;4.72;4.03;;;;;;;14.15;100.00;96426.03;5067303;28;20351;-51
2022/06/02 00:30:17;;;;;;;5.45;4.35;;;;;;;14.12;100.00;96429.03;5062057;28;20083;-50
2022/06/02 00:32:52;;;;;;;6.28;4.45;;;;;;;14.08;100.00;96435.66;5052639;28;20562;-52
2022/06/02 00:35:25;;;;;;;6.30;4.30;;;;;;;14.01;100.00;96436.31;5062610;28;20079;-50
2022/06/02 00:37:58;;;;;;;6.22;4.60;;;;;;;14.00;100.00;96436.47;5060081;28;20064;-53
2022/06/02 00:40:28;;;;;;;6.10;4.63;;;;;;;14.06;100.00;96443.75;5058999;28;20063;-49
2022/06/02 00:43:06;;;;;;;7.50;4.78;;;;;;;13.99;100.00;96445.44;5065519;28;20075;-49
2022/06/02 00:45:34;;;;;;;5.40;4.40;;;;;;;13.97;100.00;96442.09;5055043;28;20435;-51
2022/06/02 00:48:14;;;;;;;6.95;4.80;;;;;;;13.90;100.00;96454.38;5061707;28;20084;-45
2022/06/02 00:50:49;;;;;;;5.28;4.63;;;;;;;13.91;100.00;96448.09;5060237;28;20064;-46
2022/06/02 00:53:26;;;;;;;5.80;4.65;;;;;;;13.89;100.00;96452.72;5063482;28;20455;-48
2022/06/02 00:58:59;;;;;;;6.22;4.72;;;;;;;13.77;100.00;96449.56;5035712;28;20064;-48
2022/06/02 01:01:29;;;;;;;4.63;4.10;;;;;;;13.74;100.00;96449.91;5061161;28;20056;-48
2022/06/02 01:03:59;;;;;;;5.32;4.10;;;;;;;13.69;100.00;96455.69;5067124;28;20061;-51
2022/06/02 01:07:01;;;;;;;4.78;4.32;;;;;;;13.63;100.00;96466.13;5062973;28;20081;-52
2022/06/02 01:09:43;;;;;;;5.60;4.63;;;;;;;13.60;100.00;96464.63;5062849;28;20045;-47
2022/06/02 01:12:26;;;;;;;5.93;4.50;;;;;;;13.55;100.00;96464.28;5061605;28;20088;-47
2022/06/02 01:15:04;;;;;;;5.35;4.53;;;;;;;13.44;100.00;96460.13;5063399;28;20466;-53
2022/06/02 01:17:41;;;;;;;5.32;4.80;;;;;;;13.52;100.00;96459.28;5057865;28;20641;-46
2022/06/02 01:20:21;;;;;;;5.97;4.80;;;;;;;13.45;100.00;96463.59;5059874;28;20602;-51
2022/06/02 01:23:03;;;;;;;5.57;4.57;;;;;;;13.46;100.00;96455.50;5058293;28;20072;-48
2022/06/02 01:26:01;;;;;;;5.05;3.95;;;;;;;13.43;100.00;96452.34;5063907;28;20068;-49
2022/06/02 01:28:42;;;;;;;9.30;4.30;;;;;;;13.37;100.00;96453.81;5051302;28;20534;-52
2022/06/02 01:31:51;;;;;;;5.25;4.40;;;;;;;13.35;100.00;96462.91;5061856;28;20064;-49
2022/06/02 01:34:32;;;;;;;7.18;4.72;;;;;;;13.39;100.00;96466.91;5004326;28;20491;-50
2022/06/02 01:37:05;;;;;;;6.82;4.72;;;;;;;13.36;100.00;96470.69;5001877;28;20100;-49
2022/06/02 01:39:47;;;;;;;6.85;4.82;;;;;;;13.41;100.00;96478.97;5038288;28;20075;-46
2022/06/02 01:42:23;;;;;;;6.47;4.78;;;;;;;13.41;100.00;96476.34;5061122;28;20073;-50
2022/06/02 01:44:58;;;;;;;5.80;4.63;;;;;;;13.16;100.00;96471.94;5061115;28;20463;-51
2022/06/02 01:47:32;;;;;;;7.68;5.05;;;;;;;13.21;100.00;96466.97;5063791;28;20068;-52
2022/06/02 01:50:12;;;;;;;7.40;4.70;;;;;;;13.23;100.00;96473.78;5061994;28;20534;-49
2022/06/02 01:52:50;;;;;;;7.68;4.63;;;;;;;13.25;100.00;96471.00;5059475;28;20064;-47
2022/06/02 01:55:40;;;;;;;8.18;4.95;;;;;;;13.19;100.00;96461.84;5059106;28;20126;-52
2022/06/02 01:58:17;;;;;;;5.53;5.03;;;;;;;13.17;100.00;96473.59;5063067;28;20608;-52
2022/06/02 02:00:47;;;;;;;6.95;5.20;;;;;;;13.11;100.00;96471.56;5066905;28;20075;-52
2022/06/02 02:03:19;;;;;;;;;;;;;;;13.22;100.00;96484.53;5064793;28;20084;-47
2022/06/02 02:05:56;;;;;;;6.03;4.75;;;;;;;13.22;100.00;96487.19;5061251;28;19982;-51
2022/06/02 02:08:37;;;;;;;8.38;5.32;;;;;;;13.15;100.00;96488.81;5066613;28;20083;-49
2022/06/02 02:11:18;;;;;;;7.57;5.25;;;;;;;13.12;100.00;96489.13;5066205;28;20072;-52
2022/06/02 02:13:54;;;;;;;10.25;5.85;;;;;;;13.03;100.00;96486.44;5064172;28;20628;-52
2022/06/02 02:16:30;;;;;;;6.78;6.03;;;;;;;13.00;100.00;96476.16;5069250;28;20037;-46
2022/06/02 02:19:07;;;;;;;6.95;6.20;;;;;;;12.96;100.00;96477.47;5067332;28;20072;-50
2022/06/02 02:21:43;;;;;;;8.20;5.82;;;;;;;12.95;100.00;96477.66;5067951;28;20079;-49
2022/06/02 02:24:20;;;;;;;6.78;6.07;;;;;;;12.95;100.00;96481.13;5063630;28;20091;-48
2022/06/02 02:26:54;;;;;;;7.00;5.65;;;;;;;12.83;100.00;96485.88;5062512;28;20068;-52
2022/06/02 02:29:27;;;;;;;7.50;5.80;;;;;;;12.79;100.00;96483.69;5061530;28;20064;-50
2022/06/02 02:32:06;;;;;;;8.68;6.43;;;;;;;12.84;100.00;96484.06;5067590;28;20065;-46
2022/06/02 02:34:46;;;;;;;8.35;6.50;;;;;;;12.85;100.00;96490.16;5063382;28;20070;-52
2022/06/02 02:37:18;;;;;;;7.45;6.75;;;;;;;12.77;100.00;96504.19;5068452;28;20064;-50
2022/06/02 02:39:52;;;;;;;7.95;6.53;;;;;;;12.79;100.00;96487.16;5065817;28;20072;-50
2022/06/02 02:42:32;;;;;;;8.85;6.63;;;;;;;12.83;100.00;96488.53;5066311;28;20083;-51
2022/06/02 02:45:15;;;;;;;9.83;6.53;;;;;;;12.85;100.00;96483.06;5065122;28;20068;-51
2022/06/02 02:47:46;;;;;;;8.00;6.32;;;;;;;12.81;100.00;96476.41;5063037;28;20068;-51
2022/06/02 02:50:20;;;;;;;12.05;6.20;;;;;;;12.91;100.00;96473.66;5065491;28;20079;-47
2022/06/02 02:52:55;;;;;;;6.78;6.07;;;;;;;12.91;100.00;96481.59;5067749;28;20501;-47
2022/06/02 02:55:28;;;;;;;6.90;6.20;;;;;;;12.99;100.00;96482.44;5065275;28;20566;-48
2022/06/02 02:58:00;;;;;;;7.97;6.50;;;;;;;12.98;100.00;96485.28;5066046;28;20091;-50
2022/06/02 03:00:33;;;;;;;8.73;6.50;;;;;;;13.02;100.00;96483.97;5065911;28;20083;-49
2022/06/02 03:03:06;;;;;;;7.90;6.20;;;;;;;13.16;100.00;96493.13;5064702;28;20087;-49
2022/06/02 03:05:44;;;;;;;6.95;6.20;;;;;;;13.12;100.00;96491.78;5068017;28;20060;-50
2022/06/02 03:08:18;;;;;;;8.38;6.22;;;;;;;13.30;100.00;96489.88;5061869;28;20427;-51
2022/06/02 03:10:52;;;;;;;6.50;5.90;;;;;;;13.33;100.00;96494.84;5063509;28;20098;-47
2022/06/02 03:13:29;;;;;;;6.90;6.20;;;;;;;13.41;100.00;96505.47;5060765;28;20067;-51
2022/06/02 03:16:00;;;;;;;8.32;6.40;;;;;;;13.44;100.00;96514.91;5047534;28;20048;-54
2022/06/02 03:18:53;;;;;;;6.13;5.53;;;;;;;13.54;100.00;96512.97;5061981;28;20082;-50
2022/06/02 03:21:33;;;;;;;6.35;5.68;;;;;;;13.55;100.00;96511.97;5064680;28;20048;-49
2022/06/02 03:24:36;;;;;;;6.28;5.40;;;;;;;13.44;100.00;96507.78;5064582;28;20102;-46
2022/06/02 03:27:15;;;;;;;5.75;5.18;;;;;;;13.38;100.00;96511.09;5054212;28;20447;-52
2022/06/02 03:29:53;;;;;;;6.30;5.50;;;;;;;13.39;100.00;96504.81;5059366;28;20060;-47
2022/06/02 03:32:33;;;;;;;7.25;5.00;;;;;;;13.25;100.00;96513.38;5064383;28;20071;-49
2022/06/02 03:35:07;;;;;;;6.55;5.15;;;;;;;13.21;100.00;96499.59;5060702;28;20540;-47
2022/06/02 03:37:47;;;;;;;6.15;5.55;;;;;;;13.28;100.00;96503.28;5061376;28;20072;-54
2022/06/02 03:40:35;;;;;;;6.15;5.55;;;;;;;13.33;100.00;96494.84;5059229;28;20114;-46
2022/06/02 03:43:09;;;;;;;7.13;5.85;;;;;;;13.16;100.00;96498.41;5060887;28;20545;-51
2022/06/02 03:45:45;;;;;;;7.28;6.35;;;;;;;13.59;100.00;96494.75;5063094;28;20083;-49
2022/06/02 03:48:29;;;;;;;7.20;5.90;;;;;;;14.71;100.00;96495.94;5062401;28;20442;-47
2022/06/02 03:51:05;;;;;;;9.45;5.60;;;;;;;14.92;100.00;96493.56;5059607;28;20458;-49
2022/06/02 03:53:50;;;;;;;6.32;5.10;;;;;;;14.63;100.00;96491.50;5063472;28;20454;-52
2022/06/02 03:56:29;;;;;;;7.28;5.20;;;;;;;14.68;100.00;96504.25;5061868;28;20896;-47
2022/06/02 03:59:07;;;;;;;6.43;5.60;;;;;;;14.32;100.00;96501.94;5061627;28;20452;-50
2022/06/02 04:01:38;;;;;;;10.00;5.80;;;;;;;14.50;100.00;96509.75;5060602;28;20057;-54
2022/06/02 04:04:16;;;;;;;5.95;5.35;;;;;;;14.51;100.00;96510.56;5064065;28;20080;-46
2022/06/02 04:06:55;;;;;;;7.07;6.40;;;;;;;16.21;100.00;96500.19;5064677;28;20088;-47
2022/06/02 04:09:34;;;;;;;6.68;5.40;;;;;;;16.19;100.00;96499.53;5057925;28;21461;-48
2022/06/02 04:15:09;;;;;;;6.47;4.53;;;;;;;15.23;100.00;96505.25;5063255;28;20079;-54
2022/06/02 04:17:44;;;;;;;5.43;4.45;;;;;;;14.78;100.00;96517.34;5060976;28;20071;-49
2022/06/02 04:20:41;;;;;;;5.07;4.57;;;;;;;14.45;100.00;96525.28;5056245;28;20064;-53
2022/06/02 04:23:19;;;;;;;5.40;4.85;;;;;;;14.87;100.00;96532.25;5043401;28;20080;-49
2022/06/02 04:25:54;;;;;;;6.13;4.90;;;;;;;15.08;100.00;96529.03;5064592;28;20067;-48
2022/06/02 04:28:31;;;;;;;6.15;5.55;;;;;;;15.16;100.00;96527.19;5064793;28;20470;-47
2022/06/02 04:31:08;;;;;;;9.27;5.53;;;;;;;15.31;100.00;96531.75;5063764;28;20153;-46
2022/06/02 04:33:41;;;;;;;6.18;5.55;;;;;;;15.40;100.00;96531.56;5055593;28;20065;-49
2022/06/02 04:36:16;;;;;;;6.90;6.07;;;;;;;15.55;100.00;96533.47;5050358;28;20065;-54
2022/06/02 04:38:58;;;;;;;6.72;5.65;;;;;;;15.66;100.00;96538.47;5056228;28;20432;-52
2022/06/02 04:41:33;;;;;;;7.05;5.78;;;;;;;15.85;100.00;96535.34;5056478;28;20045;-50
2022/06/02 04:44:07;;;;;;;6.45;5.63;;;;;;;15.95;100.00;96535.13;5061666;28;20068;-52
2022/06/02 04:46:46;;;;;;;5.78;5.28;;;;;;;16.24;100.00;96536.25;5054344;28;20671;-53
2022/06/02 04:49:21;;;;;;;6.68;5.32;;;;;;;16.28;100.00;96532.25;5057412;28;20077;-51
2022/06/02 04:51:54;;;;;;;5.82;5.22;;;;;;;16.14;100.00;96539.16;5054412;28;20086;-52
2022/06/02 04:54:30;;;;;;;7.55;5.70;;;;;;;16.36;100.00;96545.47;5056518;28;20072;-48
2022/06/02 04:57:08;;;;;;;8.25;5.57;;;;;;;17.25;100.00;96546.47;5062831;28;20075;-52
2022/06/02 04:59:40;;;;;;;8.38;6.00;;;;;;;17.20;100.00;96537.34;5054577;28;20065;-50
2022/06/02 05:02:14;;;;;;;9.02;6.18;;;;;;;17.91;100.00;96525.16;5067097;28;20068;-47
2022/06/02 05:04:47;;;;;;;6.28;5.40;;;;;;;17.78;100.00;96522.31;5061371;28;20072;-49
2022/06/02 05:07:20;;;;;;;8.23;5.45;;;;;;;17.36;100.00;96525.69;5059367;28;20080;-48
2022/06/02 05:09:59;;;;;;;7.35;5.70;;;;;;;16.79;100.00;96541.31;5069051;28;20076;-49
2022/06/02 05:12:33;;;;;;;6.20;5.60;;;;;;;16.60;100.00;96558.56;5063329;28;20586;-51
2022/06/02 05:15:12;;;;;;;7.93;6.10;;;;;;;16.59;100.00;96561.44;5056128;28;20075;-47
2022/06/02 05:18:04;;;;;;;7.15;6.45;;;;;;;16.58;100.00;96555.25;5061708;28;20075;-51
2022/06/02 05:20:58;;;;;;;7.18;6.47;;;;;;;16.63;100.00;96568.03;5062535;28;20068;-50
2022/06/02 05:23:46;;;;;;;7.18;6.20;;;;;;;16.31;100.00;96572.63;5061472;28;20460;-52
2022/06/02 05:26:32;;;;;;;7.15;6.38;;;;;;;16.64;100.00;96576.84;5060270;28;20079;-54
2022/06/02 05:29:29;;;;;;;8.27;6.40;;;;;;;16.49;100.00;96567.00;5058357;28;20075;-54
2022/06/02 05:32:31;;;;;;;6.78;6.07;;;;;;;16.76;100.00;96568.28;5060877;28;20072;-52
2022/06/02 05:35:24;;;;;;;7.65;6.95;;;;;;;17.71;100.00;96556.06;5056936;28;20068;-52
2022/06/02 05:38:01;;;;;;;7.45;6.75;;;;;;;18.29;100.00;96554.28;5054563;28;20519;-52
2022/06/02 05:40:35;;;;;;;6.80;6.10;;;;;;;19.70;100.00;96548.94;5051971;28;20075;-50
2022/06/02 05:43:25;;;;;;;7.10;5.82;;;;;;;20.12;100.00;96545.97;5055099;28;20095;-52
2022/06/02 05:46:06;;;;;;;5.43;4.93;;;;;;;19.91;100.00;96554.16;5055931;28;20456;-50
2022/06/02 05:49:02;;;;;;;6.70;4.90;;;;;;;19.36;100.00;96548.75;5052258;28;20170;-51
2022/06/02 05:51:36;;;;;;;6.10;4.65;;;;;;;19.13;100.00;96554.38;5038770;28;20461;-53
2022/06/02 05:54:18;;;;;;;6.72;5.00;;;;;;;19.17;100.00;96544.13;5063936;28;20730;-48
2022/06/02 05:56:53;;;;;;;5.38;4.88;;;;;;;19.01;100.00;96550.59;5061923;28;20497;-55
2022/06/02 05:59:52;;;;;;;5.80;4.78;;;;;;;19.36;100.00;96550.59;5066816;28;20075;-52
2022/06/02 06:02:38;;;;;;;6.03;4.72;;;;;;;18.69;100.00;96552.78;5022626;28;20064;-54
2022/06/02 06:05:22;;;;;;;5.50;4.82;;;;;;;18.64;100.00;96567.72;5055631;28;20072;-52
2022/06/02 06:08:09;;;;;;;5.78;5.20;;;;;;;19.08;100.00;96574.69;5061961;28;20056;-50
2022/06/02 06:10:42;;;;;;;6.28;5.68;;;;;;;18.87;100.00;96572.91;5061301;28;20148;-51
2022/06/02 06:13:25;;;;;;;6.15;5.40;;;;;;;18.63;100.00;96582.13;5061696;28;20068;-55
2022/06/02 06:15:59;;;;;;;6.25;5.50;;;;;;;18.69;100.00;96582.19;5063812;28;20072;-47
2022/06/02 06:18:39;;;;;;;7.85;5.88;;;;;;;19.24;100.00;96582.41;5061227;28;21472;-47
2022/06/02 06:21:18;;;;;;;8.20;5.40;;;;;;;19.03;100.00;96574.44;5050734;28;20069;-49
2022/06/02 06:24:25;;;;;;;6.57;5.88;;;;;;;18.92;100.00;96573.13;5055078;28;20075;-49
2022/06/02 06:27:00;;;;;;;7.95;5.88;;;;;;;19.30;100.00;96583.47;5054774;28;20087;-48
2022/06/02 06:29:37;;;;;;;6.68;5.97;;;;;;;19.52;100.00;96584.22;5061901;28;20068;-48
2022/06/02 06:32:18;;;;;;;6.88;6.07;;;;;;;19.40;100.00;96584.75;5053408;28;20538;-48
2022/06/02 06:34:55;;;;;;;6.57;5.90;;;;;;;19.18;100.00;96584.00;5052583;28;20073;-49
2022/06/02 06:37:45;;;;;;;8.63;5.97;;;;;;;19.13;100.00;96586.47;5051699;28;20064;-50
2022/06/02 06:40:25;;;;;;;6.78;5.53;;;;;;;18.64;100.00;96579.25;5059872;28;20076;-50
2022/06/02 06:43:03;;;;;;;6.50;5.85;;;;;;;18.70;100.00;96581.16;5063861;28;20072;-51
2022/06/02 06:45:36;;;;;;;7.35;6.32;;;;;;;18.88;100.00;96582.56;5069678;28;21771;-52
2022/06/02 06:48:14;;;;;;;7.28;6.05;;;;;;;18.85;100.00;96577.59;5064520;28;20090;-49
2022/06/02 06:50:52;;;;;;;7.25;5.28;;;;;;;19.13;100.00;96577.59;5071204;28;20076;-47
2022/06/02 06:53:30;;;;;;;5.65;5.15;;;;;;;19.39;100.00;96571.59;5059259;28;20099;-48
2022/06/02 06:56:05;;;;;;;7.00;5.38;;;;;;;19.17;100.00;96573.53;5053101;28;20114;-50
2022/06/02 06:58:55;;;;;;;6.05;5.45;;;;;;;19.17;100.00;96577.03;5070218;28;20072;-48
2022/06/02 07:01:28;;;;;;;7.68;5.55;;;;;;;19.45;100.00;96584.19;5068633;28;20075;-50
2022/06/02 07:04:05;;;;;;;6.85;5.72;;;;;;;19.47;100.00;96592.00;5058963;28;20081;-47
2022/06/02 07:06:45;;;;;;;6.95;5.60;;;;;;;19.37;100.00;96590.53;5052289;28;20547;-51
2022/06/02 07:09:19;;;;;;;7.10;5.75;;;;;;;19.57;100.00;96593.28;5061196;28;20573;-52
2022/06/02 07:14:42;;;;;;;7.95;6.00;;;;;;;19.74;100.00;96598.34;5068786;28;20079;-47
2022/06/02 07:17:27;;;;;;;7.72;6.05;;;;;;;19.89;100.00;96594.50;5055027;28;20068;-50
2022/06/02 07:20:18;;;;;;;11.85;6.50;;;;;;;19.80;100.00;96590.34;5057866;28;20467;-51
2022/06/02 07:22:55;;;;;;;8.15;6.30;;;;;;;19.37;100.00;96601.22;5060548;28;20068;-50
2022/06/02 07:25:28;;;;;;;7.35;6.65;;;;;;;19.77;100.00;96601.44;5056756;28;20067;-47
2022/06/02 07:28:02;;;;;;;9.13;6.50;;;;;;;19.81;100.00;96601.88;5062275;28;20084;-47
2022/06/02 07:30:46;;;;;;;9.90;6.90;;;;;;;20.02;100.00;96601.75;5067173;28;20087;-51
2022/06/02 07:33:32;;;;;;;8.60;6.18;;;;;;;19.95;100.00;96595.53;5065657;28;20769;-50
2022/06/02 07:36:44;;;;;;;6.70;5.90;;;;;;;19.99;100.00;96593.28;5057874;28;20068;-50
2022/06/02 07:39:37;;;;;;;6.90;6.20;;;;;;;19.88;100.00;96600.06;5061759;28;20073;-47
2022/06/02 07:42:23;;;;;;;9.90;6.45;;;;;;;20.25;100.00;96590.72;5064334;28;20072;-49
2022/06/02 07:45:16;;;;;;;7.97;6.22;;;;;;;20.26;100.00;96595.03;5060485;28;20075;-53
2022/06/02 07:47:56;;;;;;;8.13;6.40;;;;;;;20.41;100.00;96605.59;5041294;28;20475;-49
2022/06/02 07:50:28;;;;;;;8.48;5.90;;;;;;;20.35;100.00;96601.03;5056388;28;20103;-47
2022/06/02 07:53:08;;;;;;;8.02;6.70;;;;;;;20.56;100.00;96603.56;5063133;28;20068;-50
2022/06/02 07:55:45;;;;;;;7.47;6.23;;;;;;;20.52;100.00;96604.19;5056499;28;20091;-50
2022/06/02 07:58:24;;;;;;;8.50;6.15;;;;;;;20.48;100.00;96598.38;5060067;28;20498;-48
2022/06/02 08:00:59;;;;;;;7.20;6.40;;;;;;;20.73;100.00;96601.34;5067667;28;20080;-49
2022/06/02 08:03:49;;;;;;;6.53;5.90;;;;;;;20.44;100.00;96607.88;5062859;28;20486;-52
2022/06/02 08:06:25;;;;;;;7.18;6.32;;;;;;;20.39;100.00;96599.59;5064679;28;20095;-50
2022/06/02 08:09:33;;;;;;;7.82;6.72;;;;;;;20.57;100.00;96602.53;5061171;28;20080;-48
2022/06/02 08:12:06;;;;;;;8.65;7.63;;;;;;;20.77;100.00;96604.44;5055350;28;20112;-47
2022/06/02 08:14:54;;;;;;;8.73;7.18;;;;;;;20.77;100.00;96612.47;5064565;28;20102;-50
2022/06/02 08:17:31;;;;;;;8.77;7.40;;;;;;;20.98;100.00;96612.25;5058573;28;20069;-47
2022/06/02 08:20:09;;;;;;;9.02;7.57;;;;;;;21.08;100.00;96618.03;5056591;28;20071;-53
2022/06/02 08:22:42;;;;;;;9.25;7.25;;;;;;;21.29;100.00;96616.16;5061970;28;20065;-46
2022/06/02 08:25:12;;;;;;;8.35;6.70;;;;;;;21.50;100.00;96623.19;5059082;28;20122;-49
2022/06/02 08:27:58;;;;;;;6.85;6.03;;;;;;;21.14;100.00;96619.06;5056850;28;20072;-50
2022/06/02 08:30:34;;;;;;;9.13;6.70;;;;;;;21.39;100.00;96616.59;5051485;28;20415;-47
2022/06/02 08:33:11;;;;;;;9.00;6.07;;;;;;;21.33;100.00;96620.06;5056477;28;20072;-48
2022/06/02 08:35:44;;;;;;;8.55;6.40;;;;;;;21.58;100.00;96617.59;5051311;28;20061;-51
2022/06/02 08:38:27;;;;;;;7.90;6.68;;;;;;;21.94;100.00;96618.94;5056557;28;20065;-51
2022/06/02 08:41:30;;;;;;;7.85;7.07;;;;;;;22.19;100.00;96611.81;5064247;28;20063;-53
2022/06/02 08:44:33;;;;;;;7.80;6.53;;;;;;;21.75;100.00;96617.97;5061200;28;20067;-52
2022/06/02 08:47:28;;;;;;;7.72;6.85;;;;;;;21.69;100.00;96622.31;5043367;28;20064;-50
2022/06/02 08:50:14;;;;;;;9.65;6.82;;;;;;;22.14;100.00;96613.50;5028760;28;20088;-53
2022/06/02 08:53:23;;;;;;;11.20;7.28;;;;;;;22.41;100.00;96616.91;5062423;28;20121;-50
2022/06/02 08:56:18;;;;;;;8.43;7.63;;;;;;;22.43;100.00;96623.69;5062309;28;20061;-47
2022/06/02 08:59:31;;;;;;;9.40;7.50;;;;;;;22.04;100.00;96638.09;5066374;28;20068;-50
2022/06/02 09:02:23;;;;;;;8.55;7.15;;;;;;;22.51;100.00;96623.44;5051887;28;20065;-48
2022/06/02 09:05:14;;;;;;;11.32;6.57;;;;;;;22.08;100.00;96643.88;5057700;28;20432;-45
2022/06/02 09:08:05;;;;;;;6.72;6.07;;;;;;;21.87;100.00;96642.31;5069330;28;20060;-47
2022/06/02 09:10:43;;;;;;;7.57;6.22;;;;;;;22.07;100.00;96637.69;5062383;28;20067;-49
2022/06/02 09:14:00;;;;;;;7.63;6.15;;;;;;;23.10;100.00;96624.09;5055249;28;20080;-51
2022/06/02 09:16:36;;;;;;;7.35;5.25;;;;;;;23.40;100.00;96629.63;5056951;28;20090;-49
2022/06/02 09:19:29;;;;;;;6.32;5.60;;;;;;;23.00;100.00;96633.72;5055935;28;20079;-48
2022/06/02 09:22:23;;;;;;;6.75;5.38;;;;;;;22.98;100.00;96628.53;5055508;28;20087;-49
2022/06/02 09:24:56;;;;;;;6.57;5.07;;;;;;;23.39;100.00;96629.84;5064276;28;20075;-50
2022/06/02 09:27:46;;;;;;;6.65;5.85;;;;;;;23.30;100.00;96636.56;5064769;28;20068;-52
2022/06/02 09:30:21;;;;;;;5.57;4.93;;;;;;;23.24;100.00;96640.94;5064670;28;20068;-47
2022/06/02 09:33:33;;;;;;;8.32;6.75;;;;;;;22.71;100.00;96639.47;5065399;28;20117;-47
2022/06/02 09:35:59;;;;;;;7.00;6.30;;;;;;;22.77;100.00;96635.06;5068021;28;20060;-48
2022/06/02 09:38:40;;;;;;;6.25;5.65;;;;;;;22.94;100.00;96630.84;5062382;28;20514;-51
2022/06/02 09:41:21;;;;;;;8.52;6.80;;;;;;;22.77;100.00;96636.94;5068228;28;20521;-49
2022/06/02 09:44:12;;;;;;;8.40;7.25;;;;;;;22.93;100.00;96639.94;5056820;28;20075;-48
2022/06/02 09:47:18;;;;;;;7.75;6.05;;;;;;;22.51;100.00;96642.25;5055451;28;20474;-48
2022/06/02 09:50:07;;;;;;;6.90;6.20;;;;;;;22.74;100.00;96644.38;5061808;28;20068;-49
2022/06/02 09:52:49;;;;;;;6.93;5.53;;;;;;;22.82;100.00;96637.13;5051368;28;20540;-49
2022/06/02 09:55:29;;;;;;;6.13;4.95;;;;;;;23.62;100.00;96637.28;5063907;28;20048;-47
2022/06/02 09:58:41;;;;;;;8.68;5.65;;;;;;;23.60;100.00;96628.59;5066549;28;20103;-52
2022/06/02 10:01:32;;;;;;;6.15;5.22;;;;;;;23.22;100.00;96632.25;5066505;28;20082;-50
2022/06/02 10:04:42;;;;;;;8.15;5.30;;;;;;;23.58;100.00;96631.53;5060696;28;20087;-46
2022/06/02 10:07:29;;;;;;;7.80;5.30;;;;;;;23.91;100.00;96636.56;5000454;28;20710;-47
2022/06/02 10:10:27;;;;;;;6.18;5.47;;;;;;;24.10;100.00;96636.59;5001060;28;20084;-50
2022/06/02 10:13:39;;;;;;;7.60;5.78;;;;;;;24.21;100.00;96633.13;5054206;28;20073;-49
2022/06/02 10:16:26;;;;;;;5.22;4.72;;;;;;;24.35;92.65;96625.69;5054879;28;20083;-50
2022/06/02 10:19:08;;;;;;;6.93;4.15;;;;;;;24.11;83.65;96624.75;5064160;28;20096;-52
2022/06/02 10:21:46;;;;;;;4.15;3.10;;;;;;;23.74;85.21;96613.16;5064658;28;20092;-52
2022/06/02 10:24:47;;;;;;;4.25;3.00;;;;;;;24.05;63.48;96618.38;5062343;28;20069;-49
2022/06/02 10:27:46;;;;;;;4.88;2.78;;;;;;;23.31;65.77;96624.75;5063638;28;20683;-48
2022/06/02 10:30:29;;;;;;;6.45;2.72;;;;;;;24.12;57.54;96629.94;5059830;28;20072;-49
2022/06/02 10:33:29;;;;;;;3.80;3.38;;;;;;;24.29;66.56;96621.19;5061365;28;20433;-48
2022/06/02 10:36:23;;;;;;;6.35;3.83;;;;;;;24.37;68.12;96626.28;5058805;28;20064;-46
2022/06/02 10:39:00;;;;;;;7.15;5.20;;;;;;;24.44;83.02;96631.63;5057061;28;20515;-50
2022/06/02 10:41:43;;;;;;;6.03;5.43;;;;;;;24.68;87.41;96625.25;5057589;28;20095;-46
2022/06/02 10:44:19;;;;;;;5.65;4.50;;;;;;;23.72;92.15;96631.44;5052190;28;20071;-51
2022/06/02 10:47:17;;;;;;;6.22;5.15;;;;;;;24.49;81.71;96631.75;5060333;28;20451;-51
2022/06/02 10:49:56;;;;;;;5.28;4.32;;;;;;;24.09;87.69;96626.88;5062170;28;20075;-51
2022/06/02 10:53:01;;;;;;;5.43;4.28;;;;;;;23.76;91.19;96628.06;5065181;28;20068;-50
2022/06/02 10:55:43;;;;;;;6.07;4.70;;;;;;;24.07;83.52;96619.00;5029672;28;20068;-51
2022/06/02 10:58:43;;;;;;;4.55;4.07;;;;;;;24.33;73.97;96623.22;5067287;28;20075;-47
2022/06/02 11:02:05;;;;;;;4.13;3.72;;;;;;;24.92;68.47;96618.06;5060101;28;20498;-54
2022/06/02 11:05:21;;;;;;;6.65;3.88;;;;;;;25.24;72.11;96624.00;4955586;28;20171;-51
2022/06/02 11:08:45;;;;;;;3.75;3.20;;;;;;;24.78;67.87;96622.00;4995573;28;20062;-53
2022/06/02 11:11:47;;;;;;;4.47;3.08;;;;;;;24.90;66.00;96622.84;5064073;28;20079;-47
2022/06/02 11:14:39;;;;;;;3.97;3.10;;;;;;;24.50;65.22;96628.84;5059009;28;20083;-48
2022/06/02 11:17:29;;;;;;;4.32;2.85;;;;;;;24.74;57.07;96624.34;5058161;28;20060;-50
2022/06/02 11:20:35;;;;;;;5.60;3.17;;;;;;;24.41;62.70;96627.50;5061259;28;20060;-53
2022/06/02 11:23:25;;;;;;;5.30;3.60;;;;;;;24.64;61.95;96618.69;5063895;28;20898;-52
2022/06/02 11:26:26;;;;;;;4.75;3.33;;;;;;;24.77;65.24;96609.56;5055990;28;20506;-53
2022/06/02 11:29:25;;;;;;;3.28;2.95;;;;;;;25.45;61.10;96608.28;5060838;28;20064;-53
2022/06/02 11:32:06;;;;;;;5.05;3.15;;;;;;;25.08;66.58;96606.56;5052903;28;20071;-49
2022/06/02 11:34:54;;;;;;;4.22;3.13;;;;;;;24.82;64.18;96599.72;5050891;28;20541;-46
2022/06/02 11:37:34;;;;;;;5.28;4.00;;;;;;;25.16;61.86;96600.06;5051529;28;20059;-52
2022/06/02 11:40:29;;;;;;;5.35;3.63;;;;;;;25.31;67.24;96592.31;5061832;28;20059;-48
2022/06/02 11:43:12;;;;;;;4.68;3.35;;;;;;;24.65;73.60;96585.28;5051655;28;20088;-49
2022/06/02 11:46:19;;;;;;;3.72;3.08;;;;;;;25.42;72.83;96582.56;5055726;28;20459;-55
2022/06/02 11:49:05;;;;;;;6.75;4.00;;;;;;;25.03;70.27;96582.16;5056572;28;20256;-50
2022/06/02 11:51:58;;;;;;;4.28;2.90;;;;;;;24.71;64.24;96583.50;5056905;28;20450;-51
2022/06/02 11:54:40;;;;;;;41.50;21.13;;;;;;;25.66;66.65;96571.72;5058771;28;20343;-52
2022/06/02 11:57:52;;;;;;;105.63;46.92;;;;;;;25.27;57.79;96569.53;5060165;28;21517;-53
2022/06/02 12:00:50;;;;;;;7.45;4.95;;;;;;;25.12;63.85;96577.28;5069293;28;20239;-54
2022/06/02 12:04:02;;;;;;;5.53;3.47;;;;;;;25.34;59.29;96572.13;5060492;28;20068;-48
2022/06/02 12:07:16;;;;;;;3.05;2.70;;;;;;;25.44;64.77;96571.53;5044087;28;20510;-49
2022/06/02 12:10:19;;;;;;;5.20;3.10;;;;;;;25.41;59.01;96574.69;5053326;28;21050;-46
2022/06/02 12:13:11;;;;;;;4.20;2.88;;;;;;;25.19;58.67;96575.31;5063161;28;21472;-48
2022/06/02 12:16:17;;;;;;;3.25;2.63;;;;;;;25.40;55.33;96578.47;5054149;28;20575;-50
2022/06/02 12:18:58;;;;;;;2.90;2.38;;;;;;;25.47;54.96;96574.59;4991285;28;20474;-51
2022/06/02 12:21:53;;;;;;;6.53;2.70;;;;;;;25.95;52.19;96559.16;5004819;28;20550;-47
2022/06/02 12:24:45;;;;;;;4.25;2.50;;;;;;;26.14;51.92;96565.19;5054143;28;20073;-50
2022/06/02 12:27:49;;;;;;;2.95;2.45;;;;;;;26.42;50.65;96573.28;5060518;28;20102;-48
2022/06/02 12:30:26;;;;;;;6.07;2.55;;;;;;;25.38;55.05;96581.38;5052123;28;20071;-49
2022/06/02 12:33:08;;;;;;;3.40;3.10;;;;;;;26.05;54.88;96583.66;5058370;28;20080;-52
2022/06/02 12:35:48;;;;;;;3.10;2.10;;;;;;;26.63;46.01;96579.09;5068446;28;20064;-47
2022/06/02 12:38:34;;;;;;;3.67;2.00;;;;;;;27.11;44.83;96578.53;5063171;28;20060;-51
2022/06/02 12:41:32;;;;;;;3.10;2.10;;;;;;;27.22;43.19;96571.44;5066494;28;20075;-47
2022/06/02 12:44:28;;;;;;;3.13;2.42;;;;;;;27.29;46.50;96568.53;5044312;28;20067;-53
2022/06/02 12:47:22;;;;;;;3.75;2.40;;;;;;;26.81;48.69;96564.53;5053030;28;20448;-49
2022/06/02 12:50:29;;;;;;;2.67;2.47;;;;;;;26.48;49.38;96569.63;5059356;28;20056;-51
2022/06/02 12:53:26;;;;;;;6.53;2.60;;;;;;;27.36;51.59;96575.44;5062546;28;20059;-54